sensor_id;sensor_type;location;lat;lon;timestamp;temperature;humidity
14140;DHT22;7150;53.514;9.988;2022-11-20T00:01:46;9.00;82.90
14140;DHT22;7150;53.514;9.988;2022-11-20T00:04:11;8.90;82.60
14140;DHT22;7150;53.514;9.988;2022-11-20T00:06:37;9.00;82.80
14140;DHT22;7150;53.514;9.988;2022-11-20T00:09:03;9.10;82.80
14140;DHT22;7150;53.514;9.988;2022-11-20T00:11:31;9.10;82.70
14140;DHT22;7150;53.514;9.988;2022-11-20T00:13:58;9.10;82.50
14140;DHT22;7150;53.514;9.988;2022-11-20T00:16:26;9.10;82.40
14140;DHT22;7150;53.514;9.988;2022-11-20T00:18:53;9.10;82.60
14140;DHT22;7150;53.514;9.988;2022-11-20T00:21:24;9.10;82.60
14140;DHT22;7150;53.514;9.988;2022-11-20T00:23:50;9.10;82.90
14140;DHT22;7150;53.514;9.988;2022-11-20T00:26:18;9.10;82.90
14140;DHT22;7150;53.514;9.988;2022-11-20T00:28:48;9.10;82.80
14140;DHT22;7150;53.514;9.988;2022-11-20T00:31:14;9.10;82.80
14140;DHT22;7150;53.514;9.988;2022-11-20T00:33:41;9.20;82.80
14140;DHT22;7150;53.514;9.988;2022-11-20T00:36:09;9.20;83.00
14140;DHT22;7150;53.514;9.988;2022-11-20T00:38:35;9.20;83.10
14140;DHT22;7150;53.514;9.988;2022-11-20T00:41:04;9.30;83.10
14140;DHT22;7150;53.514;9.988;2022-11-20T00:43:30;9.20;82.80
14140;DHT22;7150;53.514;9.988;2022-11-20T00:46:17;9.20;83.00
14140;DHT22;7150;53.514;9.988;2022-11-20T00:48:43;9.30;82.90
14140;DHT22;7150;53.514;9.988;2022-11-20T00:51:12;9.30;82.90
14140;DHT22;7150;53.514;9.988;2022-11-20T00:53:37;9.30;82.90
14140;DHT22;7150;53.514;9.988;2022-11-20T00:56:06;9.30;83.00
14140;DHT22;7150;53.514;9.988;2022-11-20T00:58:37;9.40;82.90
14140;DHT22;7150;53.514;9.988;2022-11-20T01:01:12;9.30;82.70
14140;DHT22;7150;53.514;9.988;2022-11-20T01:03:43;9.30;82.70
14140;DHT22;7150;53.514;9.988;2022-11-20T01:06:17;9.30;82.90
14140;DHT22;7150;53.514;9.988;2022-11-20T01:08:44;9.10;82.50
14140;DHT22;7150;53.514;9.988;2022-11-20T01:11:12;8.90;82.90
14140;DHT22;7150;53.514;9.988;2022-11-20T01:13:38;8.80;82.90
14140;DHT22;7150;53.514;9.988;2022-11-20T01:16:19;8.90;82.90
14140;DHT22;7150;53.514;9.988;2022-11-20T01:18:47;8.80;82.90
14140;DHT22;7150;53.514;9.988;2022-11-20T01:21:16;8.90;83.10
14140;DHT22;7150;53.514;9.988;2022-11-20T01:23:43;8.90;82.80
14140;DHT22;7150;53.514;9.988;2022-11-20T01:26:11;8.90;82.60
14140;DHT22;7150;53.514;9.988;2022-11-20T01:28:38;8.90;82.70
14140;DHT22;7150;53.514;9.988;2022-11-20T01:33:43;9.00;82.40
14140;DHT22;7150;53.514;9.988;2022-11-20T01:36:10;9.00;82.50
14140;DHT22;7150;53.514;9.988;2022-11-20T01:38:36;9.00;82.60
14140;DHT22;7150;53.514;9.988;2022-11-20T01:41:01;8.90;82.80
14140;DHT22;7150;53.514;9.988;2022-11-20T01:43:27;8.90;83.10
14140;DHT22;7150;53.514;9.988;2022-11-20T01:46:19;9.10;83.20
14140;DHT22;7150;53.514;9.988;2022-11-20T01:48:56;9.10;82.80
14140;DHT22;7150;53.514;9.988;2022-11-20T01:51:32;9.10;82.70
14140;DHT22;7150;53.514;9.988;2022-11-20T01:54:00;9.10;82.80
14140;DHT22;7150;53.514;9.988;2022-11-20T01:56:28;9.10;82.80
14140;DHT22;7150;53.514;9.988;2022-11-20T01:58:58;9.10;82.80
14140;DHT22;7150;53.514;9.988;2022-11-20T02:01:26;9.10;82.80
14140;DHT22;7150;53.514;9.988;2022-11-20T02:03:52;9.10;82.60
14140;DHT22;7150;53.514;9.988;2022-11-20T02:06:27;9.10;82.70
14140;DHT22;7150;53.514;9.988;2022-11-20T02:08:54;9.00;83.30
14140;DHT22;7150;53.514;9.988;2022-11-20T02:11:20;9.10;82.70
14140;DHT22;7150;53.514;9.988;2022-11-20T02:13:47;9.20;82.80
14140;DHT22;7150;53.514;9.988;2022-11-20T02:16:16;9.20;82.70
14140;DHT22;7150;53.514;9.988;2022-11-20T02:18:43;9.20;82.80
14140;DHT22;7150;53.514;9.988;2022-11-20T02:26:34;9.20;82.90
14140;DHT22;7150;53.514;9.988;2022-11-20T02:29:03;9.20;82.90
14140;DHT22;7150;53.514;9.988;2022-11-20T02:31:33;9.20;83.00
14140;DHT22;7150;53.514;9.988;2022-11-20T02:33:58;9.20;83.00
14140;DHT22;7150;53.514;9.988;2022-11-20T02:36:26;9.20;83.00
14140;DHT22;7150;53.514;9.988;2022-11-20T02:38:52;9.20;83.00
14140;DHT22;7150;53.514;9.988;2022-11-20T02:41:18;9.20;82.90
14140;DHT22;7150;53.514;9.988;2022-11-20T02:43:44;9.30;82.80
14140;DHT22;7150;53.514;9.988;2022-11-20T02:46:09;9.20;82.90
14140;DHT22;7150;53.514;9.988;2022-11-20T02:48:35;9.20;82.70
14140;DHT22;7150;53.514;9.988;2022-11-20T02:51:00;9.30;82.60
14140;DHT22;7150;53.514;9.988;2022-11-20T02:53:26;9.20;82.50
14140;DHT22;7150;53.514;9.988;2022-11-20T02:55:51;9.20;82.60
14140;DHT22;7150;53.514;9.988;2022-11-20T02:58:17;9.30;82.70
14140;DHT22;7150;53.514;9.988;2022-11-20T03:00:42;9.20;82.60
14140;DHT22;7150;53.514;9.988;2022-11-20T03:03:08;9.30;82.60
14140;DHT22;7150;53.514;9.988;2022-11-20T03:05:33;9.20;82.80
14140;DHT22;7150;53.514;9.988;2022-11-20T03:07:59;9.20;82.90
14140;DHT22;7150;53.514;9.988;2022-11-20T03:10:24;9.20;82.90
14140;DHT22;7150;53.514;9.988;2022-11-20T03:12:56;9.20;82.90
14140;DHT22;7150;53.514;9.988;2022-11-20T03:15:24;9.20;83.00
14140;DHT22;7150;53.514;9.988;2022-11-20T03:17:53;9.20;83.10
14140;DHT22;7150;53.514;9.988;2022-11-20T03:20:19;9.20;83.00
14140;DHT22;7150;53.514;9.988;2022-11-20T03:22:45;9.20;83.00
14140;DHT22;7150;53.514;9.988;2022-11-20T03:25:10;9.10;83.10
14140;DHT22;7150;53.514;9.988;2022-11-20T03:27:36;9.10;83.10
14140;DHT22;7150;53.514;9.988;2022-11-20T03:30:01;9.00;82.90
14140;DHT22;7150;53.514;9.988;2022-11-20T03:32:27;8.90;83.20
14140;DHT22;7150;53.514;9.988;2022-11-20T03:34:52;8.90;83.60
14140;DHT22;7150;53.514;9.988;2022-11-20T03:37:18;9.00;83.50
14140;DHT22;7150;53.514;9.988;2022-11-20T03:39:43;9.00;83.10
14140;DHT22;7150;53.514;9.988;2022-11-20T03:42:09;9.00;83.30
14140;DHT22;7150;53.514;9.988;2022-11-20T03:44:54;9.10;83.30
14140;DHT22;7150;53.514;9.988;2022-11-20T03:47:20;9.10;83.30
14140;DHT22;7150;53.514;9.988;2022-11-20T03:49:46;9.00;83.30
14140;DHT22;7150;53.514;9.988;2022-11-20T03:52:11;9.00;83.20
14140;DHT22;7150;53.514;9.988;2022-11-20T03:54:36;9.10;83.20
14140;DHT22;7150;53.514;9.988;2022-11-20T03:57:02;9.00;83.10
14140;DHT22;7150;53.514;9.988;2022-11-20T03:59:27;9.00;83.20
14140;DHT22;7150;53.514;9.988;2022-11-20T04:01:53;9.10;83.20
14140;DHT22;7150;53.514;9.988;2022-11-20T04:04:18;9.00;83.00
14140;DHT22;7150;53.514;9.988;2022-11-20T04:06:44;9.10;83.10
14140;DHT22;7150;53.514;9.988;2022-11-20T04:09:09;9.10;83.10
14140;DHT22;7150;53.514;9.988;2022-11-20T04:11:36;9.00;83.50
14140;DHT22;7150;53.514;9.988;2022-11-20T04:14:04;9.10;83.50
14140;DHT22;7150;53.514;9.988;2022-11-20T04:16:34;9.10;83.30
14140;DHT22;7150;53.514;9.988;2022-11-20T04:19:03;9.10;83.40
14140;DHT22;7150;53.514;9.988;2022-11-20T04:21:29;9.10;83.30
14140;DHT22;7150;53.514;9.988;2022-11-20T04:23:55;9.00;83.20
14140;DHT22;7150;53.514;9.988;2022-11-20T04:26:22;9.00;83.20
14140;DHT22;7150;53.514;9.988;2022-11-20T04:28:47;9.10;83.10
14140;DHT22;7150;53.514;9.988;2022-11-20T04:31:15;9.00;83.10
14140;DHT22;7150;53.514;9.988;2022-11-20T04:33:41;8.90;83.10
14140;DHT22;7150;53.514;9.988;2022-11-20T04:36:21;9.00;83.30
14140;DHT22;7150;53.514;9.988;2022-11-20T04:38:51;9.00;83.50
14140;DHT22;7150;53.514;9.988;2022-11-20T04:41:19;9.00;83.60
14140;DHT22;7150;53.514;9.988;2022-11-20T04:43:48;9.00;83.70
14140;DHT22;7150;53.514;9.988;2022-11-20T04:46:15;9.10;83.80
14140;DHT22;7150;53.514;9.988;2022-11-20T04:48:41;9.10;83.90
14140;DHT22;7150;53.514;9.988;2022-11-20T04:51:06;9.10;83.90
14140;DHT22;7150;53.514;9.988;2022-11-20T04:53:32;9.10;83.80
14140;DHT22;7150;53.514;9.988;2022-11-20T04:56:06;9.10;83.90
14140;DHT22;7150;53.514;9.988;2022-11-20T04:58:33;9.10;83.90
14140;DHT22;7150;53.514;9.988;2022-11-20T05:01:11;9.10;83.90
14140;DHT22;7150;53.514;9.988;2022-11-20T05:03:38;9.10;83.90
14140;DHT22;7150;53.514;9.988;2022-11-20T05:06:05;9.10;83.90
14140;DHT22;7150;53.514;9.988;2022-11-20T05:08:31;9.00;84.10
14140;DHT22;7150;53.514;9.988;2022-11-20T05:11:08;9.00;84.00
14140;DHT22;7150;53.514;9.988;2022-11-20T05:13:34;9.10;84.10
14140;DHT22;7150;53.514;9.988;2022-11-20T05:16:08;9.10;83.90
14140;DHT22;7150;53.514;9.988;2022-11-20T05:18:35;9.10;83.80
14140;DHT22;7150;53.514;9.988;2022-11-20T05:21:01;9.10;83.90
14140;DHT22;7150;53.514;9.988;2022-11-20T05:23:27;9.10;83.70
14140;DHT22;7150;53.514;9.988;2022-11-20T05:25:56;9.10;83.70
14140;DHT22;7150;53.514;9.988;2022-11-20T05:28:22;9.10;83.50
14140;DHT22;7150;53.514;9.988;2022-11-20T05:30:48;9.00;83.60
14140;DHT22;7150;53.514;9.988;2022-11-20T05:33:14;8.90;83.60
14140;DHT22;7150;53.514;9.988;2022-11-20T05:35:40;8.90;83.80
14140;DHT22;7150;53.514;9.988;2022-11-20T05:38:05;8.90;83.70
14140;DHT22;7150;53.514;9.988;2022-11-20T05:40:31;8.90;83.70
14140;DHT22;7150;53.514;9.988;2022-11-20T05:42:57;8.90;83.80
14140;DHT22;7150;53.514;9.988;2022-11-20T05:45:22;9.00;83.60
14140;DHT22;7150;53.514;9.988;2022-11-20T05:47:48;9.00;83.60
14140;DHT22;7150;53.514;9.988;2022-11-20T05:50:14;9.00;83.50
14140;DHT22;7150;53.514;9.988;2022-11-20T05:52:40;9.10;83.40
14140;DHT22;7150;53.514;9.988;2022-11-20T05:55:06;9.00;83.30
14140;DHT22;7150;53.514;9.988;2022-11-20T05:57:32;8.90;83.80
14140;DHT22;7150;53.514;9.988;2022-11-20T05:59:57;8.90;83.80
14140;DHT22;7150;53.514;9.988;2022-11-20T06:02:23;8.90;83.70
14140;DHT22;7150;53.514;9.988;2022-11-20T06:04:48;9.00;84.10
14140;DHT22;7150;53.514;9.988;2022-11-20T06:07:14;8.90;84.50
14140;DHT22;7150;53.514;9.988;2022-11-20T06:09:39;8.90;83.70
14140;DHT22;7150;53.514;9.988;2022-11-20T06:12:05;8.80;84.10
14140;DHT22;7150;53.514;9.988;2022-11-20T06:14:32;8.80;84.10
14140;DHT22;7150;53.514;9.988;2022-11-20T06:16:57;8.60;84.50
14140;DHT22;7150;53.514;9.988;2022-11-20T06:19:23;8.50;84.60
14140;DHT22;7150;53.514;9.988;2022-11-20T06:21:49;8.30;85.40
14140;DHT22;7150;53.514;9.988;2022-11-20T06:24:15;8.20;85.90
14140;DHT22;7150;53.514;9.988;2022-11-20T06:26:40;8.20;85.60
14140;DHT22;7150;53.514;9.988;2022-11-20T06:29:06;8.10;85.60
14140;DHT22;7150;53.514;9.988;2022-11-20T06:31:32;8.20;85.70
14140;DHT22;7150;53.514;9.988;2022-11-20T06:34:06;8.20;85.40
14140;DHT22;7150;53.514;9.988;2022-11-20T06:36:32;8.10;85.60
14140;DHT22;7150;53.514;9.988;2022-11-20T06:38:58;8.20;85.60
14140;DHT22;7150;53.514;9.988;2022-11-20T06:41:24;8.20;85.30
14140;DHT22;7150;53.514;9.988;2022-11-20T06:43:50;8.20;85.30
14140;DHT22;7150;53.514;9.988;2022-11-20T06:46:17;8.30;85.50
14140;DHT22;7150;53.514;9.988;2022-11-20T06:48:43;8.40;85.30
14140;DHT22;7150;53.514;9.988;2022-11-20T06:51:08;8.40;84.70
14140;DHT22;7150;53.514;9.988;2022-11-20T06:53:35;8.40;84.60
14140;DHT22;7150;53.514;9.988;2022-11-20T06:56:00;8.40;84.90
14140;DHT22;7150;53.514;9.988;2022-11-20T06:58:27;8.60;84.90
14140;DHT22;7150;53.514;9.988;2022-11-20T07:00:54;8.60;84.70
14140;DHT22;7150;53.514;9.988;2022-11-20T07:03:22;8.70;84.70
14140;DHT22;7150;53.514;9.988;2022-11-20T07:05:48;8.70;84.30
14140;DHT22;7150;53.514;9.988;2022-11-20T07:08:13;8.70;84.20
14140;DHT22;7150;53.514;9.988;2022-11-20T07:10:39;8.70;84.10
14140;DHT22;7150;53.514;9.988;2022-11-20T07:13:04;8.80;84.20
14140;DHT22;7150;53.514;9.988;2022-11-20T07:15:30;8.80;84.00
14140;DHT22;7150;53.514;9.988;2022-11-20T07:17:58;8.80;83.90
14140;DHT22;7150;53.514;9.988;2022-11-20T07:20:24;8.80;84.00
14140;DHT22;7150;53.514;9.988;2022-11-20T07:22:57;8.80;83.90
14140;DHT22;7150;53.514;9.988;2022-11-20T07:25:23;8.90;84.70
14140;DHT22;7150;53.514;9.988;2022-11-20T07:27:49;8.80;83.80
14140;DHT22;7150;53.514;9.988;2022-11-20T07:30:18;8.70;84.90
14140;DHT22;7150;53.514;9.988;2022-11-20T07:32:46;8.70;84.30
14140;DHT22;7150;53.514;9.988;2022-11-20T07:35:13;8.70;84.20
14140;DHT22;7150;53.514;9.988;2022-11-20T07:37:38;8.80;84.40
14140;DHT22;7150;53.514;9.988;2022-11-20T07:40:04;8.80;84.30
14140;DHT22;7150;53.514;9.988;2022-11-20T07:42:29;8.80;84.40
14140;DHT22;7150;53.514;9.988;2022-11-20T07:44:55;8.80;84.40
14140;DHT22;7150;53.514;9.988;2022-11-20T07:47:20;8.80;84.60
14140;DHT22;7150;53.514;9.988;2022-11-20T07:49:46;8.70;84.50
14140;DHT22;7150;53.514;9.988;2022-11-20T07:52:11;8.80;84.50
14140;DHT22;7150;53.514;9.988;2022-11-20T07:54:37;8.90;84.50
14140;DHT22;7150;53.514;9.988;2022-11-20T07:57:02;8.90;84.60
14140;DHT22;7150;53.514;9.988;2022-11-20T07:59:28;8.90;84.70
14140;DHT22;7150;53.514;9.988;2022-11-20T08:01:54;8.90;84.70
14140;DHT22;7150;53.514;9.988;2022-11-20T08:04:19;8.90;84.80
14140;DHT22;7150;53.514;9.988;2022-11-20T08:06:45;8.90;84.70
14140;DHT22;7150;53.514;9.988;2022-11-20T08:09:10;8.90;84.90
14140;DHT22;7150;53.514;9.988;2022-11-20T08:11:36;8.90;84.60
14140;DHT22;7150;53.514;9.988;2022-11-20T08:14:20;8.90;84.90
14140;DHT22;7150;53.514;9.988;2022-11-20T08:16:47;8.90;85.00
14140;DHT22;7150;53.514;9.988;2022-11-20T08:19:16;8.90;84.60
14140;DHT22;7150;53.514;9.988;2022-11-20T08:21:42;8.90;85.00
14140;DHT22;7150;53.514;9.988;2022-11-20T08:24:09;8.80;85.10
14140;DHT22;7150;53.514;9.988;2022-11-20T08:26:36;8.90;85.40
14140;DHT22;7150;53.514;9.988;2022-11-20T08:29:03;9.00;85.30
14140;DHT22;7150;53.514;9.988;2022-11-20T08:31:29;9.00;85.00
14140;DHT22;7150;53.514;9.988;2022-11-20T08:33:55;9.00;85.10
14140;DHT22;7150;53.514;9.988;2022-11-20T08:36:21;9.00;85.00
14140;DHT22;7150;53.514;9.988;2022-11-20T08:38:52;9.00;84.80
14140;DHT22;7150;53.514;9.988;2022-11-20T08:41:18;9.10;84.60
14140;DHT22;7150;53.514;9.988;2022-11-20T08:43:50;9.00;84.00
14140;DHT22;7150;53.514;9.988;2022-11-20T08:46:16;9.00;84.00
14140;DHT22;7150;53.514;9.988;2022-11-20T08:48:42;9.10;84.10
14140;DHT22;7150;53.514;9.988;2022-11-20T08:51:08;9.10;84.00
14140;DHT22;7150;53.514;9.988;2022-11-20T08:53:33;9.10;83.80
14140;DHT22;7150;53.514;9.988;2022-11-20T08:55:59;9.10;83.80
14140;DHT22;7150;53.514;9.988;2022-11-20T08:58:25;9.20;84.20
14140;DHT22;7150;53.514;9.988;2022-11-20T09:00:51;9.20;84.20
14140;DHT22;7150;53.514;9.988;2022-11-20T09:03:16;9.30;84.00
14140;DHT22;7150;53.514;9.988;2022-11-20T09:05:42;9.30;83.70
14140;DHT22;7150;53.514;9.988;2022-11-20T09:08:08;9.30;83.70
14140;DHT22;7150;53.514;9.988;2022-11-20T09:10:33;9.20;83.10
14140;DHT22;7150;53.514;9.988;2022-11-20T09:12:59;9.20;83.10
14140;DHT22;7150;53.514;9.988;2022-11-20T09:15:25;9.30;83.10
14140;DHT22;7150;53.514;9.988;2022-11-20T09:18:00;9.20;82.90
14140;DHT22;7150;53.514;9.988;2022-11-20T09:20:27;9.30;83.00
14140;DHT22;7150;53.514;9.988;2022-11-20T09:22:54;9.20;83.00
14140;DHT22;7150;53.514;9.988;2022-11-20T09:25:20;9.20;83.10
14140;DHT22;7150;53.514;9.988;2022-11-20T09:27:45;9.30;83.00
14140;DHT22;7150;53.514;9.988;2022-11-20T09:30:15;9.30;82.90
14140;DHT22;7150;53.514;9.988;2022-11-20T09:32:41;9.30;82.70
14140;DHT22;7150;53.514;9.988;2022-11-20T09:35:07;9.30;82.30
14140;DHT22;7150;53.514;9.988;2022-11-20T09:37:33;9.20;83.00
14140;DHT22;7150;53.514;9.988;2022-11-20T09:39:58;9.30;83.50
14140;DHT22;7150;53.514;9.988;2022-11-20T09:45:23;9.40;83.30
14140;DHT22;7150;53.514;9.988;2022-11-20T09:48:17;9.40;83.50
14140;DHT22;7150;53.514;9.988;2022-11-20T09:56:24;9.40;84.20
14140;DHT22;7150;53.514;9.988;2022-11-20T09:58:52;9.30;84.20
14140;DHT22;7150;53.514;9.988;2022-11-20T10:01:21;9.40;84.30
14140;DHT22;7150;53.514;9.988;2022-11-20T10:03:54;9.40;83.50
14140;DHT22;7150;53.514;9.988;2022-11-20T10:12:12;9.20;83.50
14140;DHT22;7150;53.514;9.988;2022-11-20T10:14:58;9.30;84.00
14140;DHT22;7150;53.514;9.988;2022-11-20T10:17:53;9.30;84.50
14140;DHT22;7150;53.514;9.988;2022-11-20T10:20:32;9.30;83.90
14140;DHT22;7150;53.514;9.988;2022-11-20T10:23:44;9.30;83.40
14140;DHT22;7150;53.514;9.988;2022-11-20T10:26:30;9.30;83.70
14140;DHT22;7150;53.514;9.988;2022-11-20T10:29:08;9.30;83.60
14140;DHT22;7150;53.514;9.988;2022-11-20T10:31:37;9.30;84.30
14140;DHT22;7150;53.514;9.988;2022-11-20T10:34:08;9.30;83.80
14140;DHT22;7150;53.514;9.988;2022-11-20T10:36:44;9.40;84.00
14140;DHT22;7150;53.514;9.988;2022-11-20T10:39:16;9.40;84.20
14140;DHT22;7150;53.514;9.988;2022-11-20T10:41:46;9.50;84.20
14140;DHT22;7150;53.514;9.988;2022-11-20T10:44:20;9.50;83.90
14140;DHT22;7150;53.514;9.988;2022-11-20T10:47:05;9.50;83.60
14140;DHT22;7150;53.514;9.988;2022-11-20T10:49:35;9.40;83.70
14140;DHT22;7150;53.514;9.988;2022-11-20T11:00:20;9.50;82.90
14140;DHT22;7150;53.514;9.988;2022-11-20T11:02:51;9.50;82.80
14140;DHT22;7150;53.514;9.988;2022-11-20T11:05:31;9.60;82.80
14140;DHT22;7150;53.514;9.988;2022-11-20T11:07:59;9.60;82.80
14140;DHT22;7150;53.514;9.988;2022-11-20T11:13:29;9.50;81.80
14140;DHT22;7150;53.514;9.988;2022-11-20T11:15:55;9.30;81.80
14140;DHT22;7150;53.514;9.988;2022-11-20T11:18:28;9.20;82.20
14140;DHT22;7150;53.514;9.988;2022-11-20T11:20:56;9.30;82.40
14140;DHT22;7150;53.514;9.988;2022-11-20T11:25:58;9.50;81.70
14140;DHT22;7150;53.514;9.988;2022-11-20T11:28:25;9.50;81.50
14140;DHT22;7150;53.514;9.988;2022-11-20T11:30:53;9.50;81.50
14140;DHT22;7150;53.514;9.988;2022-11-20T11:35:48;9.80;80.80
14140;DHT22;7150;53.514;9.988;2022-11-20T11:38:19;9.80;80.40
14140;DHT22;7150;53.514;9.988;2022-11-20T11:40:46;9.90;80.00
14140;DHT22;7150;53.514;9.988;2022-11-20T11:43:32;9.80;80.10
14140;DHT22;7150;53.514;9.988;2022-11-20T11:51:42;9.40;80.30
14140;DHT22;7150;53.514;9.988;2022-11-20T11:54:19;9.60;80.30
14140;DHT22;7150;53.514;9.988;2022-11-20T11:56:48;9.60;80.10
14140;DHT22;7150;53.514;9.988;2022-11-20T11:59:25;9.60;79.70
14140;DHT22;7150;53.514;9.988;2022-11-20T12:02:01;9.70;79.90
14140;DHT22;7150;53.514;9.988;2022-11-20T12:04:54;9.70;79.80
14140;DHT22;7150;53.514;9.988;2022-11-20T12:07:34;9.80;79.60
14140;DHT22;7150;53.514;9.988;2022-11-20T12:10:02;9.80;78.60
14140;DHT22;7150;53.514;9.988;2022-11-20T12:12:36;9.70;79.30
14140;DHT22;7150;53.514;9.988;2022-11-20T12:15:06;9.70;79.60
14140;DHT22;7150;53.514;9.988;2022-11-20T12:17:34;9.60;79.50
14140;DHT22;7150;53.514;9.988;2022-11-20T12:19:59;9.70;79.40
14140;DHT22;7150;53.514;9.988;2022-11-20T12:22:48;9.70;79.20
14140;DHT22;7150;53.514;9.988;2022-11-20T12:25:30;9.70;79.30
14140;DHT22;7150;53.514;9.988;2022-11-20T12:28:21;9.70;79.10
14140;DHT22;7150;53.514;9.988;2022-11-20T12:39:24;9.40;77.80
14140;DHT22;7150;53.514;9.988;2022-11-20T12:56:57;9.60;77.50
14140;DHT22;7150;53.514;9.988;2022-11-20T12:59:48;9.70;76.60
14140;DHT22;7150;53.514;9.988;2022-11-20T13:07:46;9.80;76.70
14140;DHT22;7150;53.514;9.988;2022-11-20T13:16:14;9.80;74.70
14140;DHT22;7150;53.514;9.988;2022-11-20T13:18:42;9.70;75.50
14140;DHT22;7150;53.514;9.988;2022-11-20T13:21:35;9.70;75.40
14140;DHT22;7150;53.514;9.988;2022-11-20T13:29:26;9.80;76.30
14140;DHT22;7150;53.514;9.988;2022-11-20T13:32:17;9.80;76.70
14140;DHT22;7150;53.514;9.988;2022-11-20T13:35:02;9.80;76.30
14140;DHT22;7150;53.514;9.988;2022-11-20T13:37:36;9.60;76.10
14140;DHT22;7150;53.514;9.988;2022-11-20T13:42:43;9.60;76.30
14140;DHT22;7150;53.514;9.988;2022-11-20T13:45:21;9.70;76.50
14140;DHT22;7150;53.514;9.988;2022-11-20T13:47:52;9.70;76.50
14140;DHT22;7150;53.514;9.988;2022-11-20T13:50:18;9.80;76.30
14140;DHT22;7150;53.514;9.988;2022-11-20T13:52:55;9.80;76.50
14140;DHT22;7150;53.514;9.988;2022-11-20T13:55:49;9.90;76.40
14140;DHT22;7150;53.514;9.988;2022-11-20T14:01:15;10.00;75.40
14140;DHT22;7150;53.514;9.988;2022-11-20T14:03:42;10.10;75.50
14140;DHT22;7150;53.514;9.988;2022-11-20T14:06:29;10.10;75.50
14140;DHT22;7150;53.514;9.988;2022-11-20T14:08:55;10.10;75.10
14140;DHT22;7150;53.514;9.988;2022-11-20T14:11:23;10.10;75.20
14140;DHT22;7150;53.514;9.988;2022-11-20T14:14:04;10.10;75.10
14140;DHT22;7150;53.514;9.988;2022-11-20T14:16:36;10.10;74.70
14140;DHT22;7150;53.514;9.988;2022-11-20T14:21:52;10.10;74.20
14140;DHT22;7150;53.514;9.988;2022-11-20T14:24:23;10.10;74.10
14140;DHT22;7150;53.514;9.988;2022-11-20T14:26:50;10.10;74.00
14140;DHT22;7150;53.514;9.988;2022-11-20T14:29:29;10.20;74.00
14140;DHT22;7150;53.514;9.988;2022-11-20T14:31:58;10.10;73.80
14140;DHT22;7150;53.514;9.988;2022-11-20T14:34:25;10.10;74.40
14140;DHT22;7150;53.514;9.988;2022-11-20T14:36:57;10.10;74.50
14140;DHT22;7150;53.514;9.988;2022-11-20T14:39:31;10.10;74.60
14140;DHT22;7150;53.514;9.988;2022-11-20T14:41:57;10.10;74.70
14140;DHT22;7150;53.514;9.988;2022-11-20T14:44:41;10.10;74.40
14140;DHT22;7150;53.514;9.988;2022-11-20T14:47:11;10.10;74.70
14140;DHT22;7150;53.514;9.988;2022-11-20T14:49:37;10.10;74.80
14140;DHT22;7150;53.514;9.988;2022-11-20T14:52:18;10.10;74.90
14140;DHT22;7150;53.514;9.988;2022-11-20T14:54:52;10.10;74.80
14140;DHT22;7150;53.514;9.988;2022-11-20T14:57:33;10.10;74.90
14140;DHT22;7150;53.514;9.988;2022-11-20T15:02:43;10.10;74.70
14140;DHT22;7150;53.514;9.988;2022-11-20T15:05:09;10.10;75.00
14140;DHT22;7150;53.514;9.988;2022-11-20T15:07:40;10.10;75.10
14140;DHT22;7150;53.514;9.988;2022-11-20T15:10:25;10.10;74.90
14140;DHT22;7150;53.514;9.988;2022-11-20T15:12:56;10.10;73.80
14140;DHT22;7150;53.514;9.988;2022-11-20T15:15:33;10.00;74.40
14140;DHT22;7150;53.514;9.988;2022-11-20T15:18:00;10.00;74.20
14140;DHT22;7150;53.514;9.988;2022-11-20T15:20:28;10.10;74.50
14140;DHT22;7150;53.514;9.988;2022-11-20T15:22:55;10.00;74.30
14140;DHT22;7150;53.514;9.988;2022-11-20T15:25:20;10.00;74.30
14140;DHT22;7150;53.514;9.988;2022-11-20T15:27:55;10.00;74.10
14140;DHT22;7150;53.514;9.988;2022-11-20T15:30:22;9.90;75.60
14140;DHT22;7150;53.514;9.988;2022-11-20T15:32:49;9.90;75.90
14140;DHT22;7150;53.514;9.988;2022-11-20T15:35:15;10.00;75.10
14140;DHT22;7150;53.514;9.988;2022-11-20T15:37:41;9.90;76.50
14140;DHT22;7150;53.514;9.988;2022-11-20T15:40:08;9.90;77.00
14140;DHT22;7150;53.514;9.988;2022-11-20T15:42:34;9.90;77.60
14140;DHT22;7150;53.514;9.988;2022-11-20T15:45:00;9.90;77.80
14140;DHT22;7150;53.514;9.988;2022-11-20T15:47:29;9.90;77.70
14140;DHT22;7150;53.514;9.988;2022-11-20T15:49:55;9.80;77.70
14140;DHT22;7150;53.514;9.988;2022-11-20T15:52:21;9.80;77.60
14140;DHT22;7150;53.514;9.988;2022-11-20T15:54:47;9.90;77.50
14140;DHT22;7150;53.514;9.988;2022-11-20T15:57:13;9.90;77.70
14140;DHT22;7150;53.514;9.988;2022-11-20T15:59:39;9.90;77.70
14140;DHT22;7150;53.514;9.988;2022-11-20T16:02:16;9.90;77.60
14140;DHT22;7150;53.514;9.988;2022-11-20T16:04:41;9.90;77.30
14140;DHT22;7150;53.514;9.988;2022-11-20T16:07:07;9.90;77.20
14140;DHT22;7150;53.514;9.988;2022-11-20T16:09:33;9.90;77.30
14140;DHT22;7150;53.514;9.988;2022-11-20T16:11:58;9.90;77.10
14140;DHT22;7150;53.514;9.988;2022-11-20T16:14:27;9.90;77.20
14140;DHT22;7150;53.514;9.988;2022-11-20T16:17:12;10.00;76.00
14140;DHT22;7150;53.514;9.988;2022-11-20T16:19:37;9.90;77.10
14140;DHT22;7150;53.514;9.988;2022-11-20T16:22:03;9.90;77.10
14140;DHT22;7150;53.514;9.988;2022-11-20T16:24:29;9.90;77.20
14140;DHT22;7150;53.514;9.988;2022-11-20T16:26:55;9.90;77.30
14140;DHT22;7150;53.514;9.988;2022-11-20T16:29:21;10.00;76.20
14140;DHT22;7150;53.514;9.988;2022-11-20T16:31:47;10.00;76.40
14140;DHT22;7150;53.514;9.988;2022-11-20T16:34:12;10.00;76.30
14140;DHT22;7150;53.514;9.988;2022-11-20T16:36:42;10.00;76.10
14140;DHT22;7150;53.514;9.988;2022-11-20T16:39:09;10.00;76.00
14140;DHT22;7150;53.514;9.988;2022-11-20T16:41:35;10.00;76.20
14140;DHT22;7150;53.514;9.988;2022-11-20T16:44:05;10.00;75.80
14140;DHT22;7150;53.514;9.988;2022-11-20T16:46:32;10.10;76.00
14140;DHT22;7150;53.514;9.988;2022-11-20T16:48:59;10.00;76.10
14140;DHT22;7150;53.514;9.988;2022-11-20T16:51:26;10.00;76.30
14140;DHT22;7150;53.514;9.988;2022-11-20T16:53:53;10.00;76.60
14140;DHT22;7150;53.514;9.988;2022-11-20T16:56:22;9.90;77.80
14140;DHT22;7150;53.514;9.988;2022-11-20T16:58:49;9.90;78.40
14140;DHT22;7150;53.514;9.988;2022-11-20T17:01:17;9.80;78.60
14140;DHT22;7150;53.514;9.988;2022-11-20T17:03:45;9.80;78.90
14140;DHT22;7150;53.514;9.988;2022-11-20T17:06:20;9.80;79.10
14140;DHT22;7150;53.514;9.988;2022-11-20T17:08:46;9.80;79.40
14140;DHT22;7150;53.514;9.988;2022-11-20T17:11:14;9.70;79.80
14140;DHT22;7150;53.514;9.988;2022-11-20T17:13:40;9.70;80.00
14140;DHT22;7150;53.514;9.988;2022-11-20T17:16:08;9.70;80.10
14140;DHT22;7150;53.514;9.988;2022-11-20T17:18:35;9.80;80.10
14140;DHT22;7150;53.514;9.988;2022-11-20T17:21:02;9.70;80.10
14140;DHT22;7150;53.514;9.988;2022-11-20T17:23:34;9.70;80.10
14140;DHT22;7150;53.514;9.988;2022-11-20T17:28:30;9.60;80.30
14140;DHT22;7150;53.514;9.988;2022-11-20T17:31:04;9.60;80.20
14140;DHT22;7150;53.514;9.988;2022-11-20T17:33:30;9.70;80.00
14140;DHT22;7150;53.514;9.988;2022-11-20T17:35:56;9.70;79.70
14140;DHT22;7150;53.514;9.988;2022-11-20T17:38:22;9.70;79.80
14140;DHT22;7150;53.514;9.988;2022-11-20T17:40:47;9.70;79.80
14140;DHT22;7150;53.514;9.988;2022-11-20T17:43:13;9.70;79.90
14140;DHT22;7150;53.514;9.988;2022-11-20T17:45:38;9.60;80.10
14140;DHT22;7150;53.514;9.988;2022-11-20T17:48:04;9.50;80.50
14140;DHT22;7150;53.514;9.988;2022-11-20T17:50:29;9.60;80.70